Time;durP1;ratioP1;P1;durP2;ratioP2;P2;SDS_P1;SDS_P2;PMS_P1;PMS_P2;Temp;Humidity;BMP_temperature;BMP_pressure;BME280_temperature;BME280_humidity;BME280_pressure;Samples;Min_cycle;Max_cycle;Signal;HPM_P1;HPM_P2
2021/10/09 00:01:38;;;;;;;15.85;9.45;;;;;;;3.53;69.48;97867.31;1844670;77;21386;-81
2021/10/09 00:04:05;;;;;;;15.95;9.40;;;;;;;3.53;70.06;97872.92;1842804;77;21051;-81
2021/10/09 00:06:32;;;;;;;13.75;8.68;;;;;;;3.53;70.18;97878.88;1836963;77;21453;-81
2021/10/09 00:08:57;;;;;;;13.03;7.78;;;;;;;3.53;70.27;97872.92;1846871;77;21408;-81
2021/10/09 00:11:34;;;;;;;17.23;9.43;;;;;;;3.52;70.55;97873.84;1846964;77;21070;-81
2021/10/09 00:13:51;;;;;;;14.38;8.95;;;;;;;3.49;70.41;97868.45;1846677;76;21027;-81
2021/10/09 00:18:41;;;;;;;11.45;8.30;;;;;;;3.44;70.76;97859.41;1846592;77;21082;-81
2021/10/09 00:21:07;;;;;;;13.83;7.65;;;;;;;3.41;70.99;97857.84;1850066;77;21051;-81
2021/10/09 00:23:33;;;;;;;14.25;7.72;;;;;;;3.40;70.97;97861.80;1849172;77;20996;-81
2021/10/09 00:25:58;;;;;;;15.35;8.73;;;;;;;3.40;70.99;97865.66;1844490;77;21378;-81
2021/10/09 00:28:24;;;;;;;13.32;8.30;;;;;;;3.42;70.91;97866.41;1843216;77;21051;-81
2021/10/09 00:30:50;;;;;;;13.45;8.98;;;;;;;3.41;71.04;97864.73;1854062;76;21019;-81
2021/10/09 00:33:16;;;;;;;13.18;8.30;;;;;;;3.38;71.11;97865.75;1853808;75;21039;-81
2021/10/09 00:35:43;;;;;;;15.10;8.93;;;;;;;3.35;70.92;97859.54;1846573;77;21090;-80
2021/10/09 00:38:08;;;;;;;15.40;7.70;;;;;;;3.28;71.10;97858.31;1849845;77;21059;-80
2021/10/09 00:40:34;;;;;;;14.95;8.70;;;;;;;3.25;71.34;97853.34;1847004;77;21004;-81
2021/10/09 00:43:00;;;;;;;14.07;9.28;;;;;;;3.20;71.49;97854.94;1844928;77;21047;-81
2021/10/09 00:45:26;;;;;;;15.03;8.28;;;;;;;3.19;71.52;97861.00;1845672;77;21039;-81
2021/10/09 00:47:51;;;;;;;16.15;9.03;;;;;;;3.20;71.54;97860.08;1852925;76;21054;-80
2021/10/09 00:50:18;;;;;;;13.58;8.98;;;;;;;3.25;71.46;97853.34;1870121;75;21472;-81
2021/10/09 00:52:44;;;;;;;12.55;8.55;;;;;;;3.25;71.38;97855.91;1845520;75;21063;-81
2021/10/09 00:55:09;;;;;;;12.40;8.25;;;;;;;3.24;71.88;97856.84;1846931;77;21401;-80
2021/10/09 00:57:35;;;;;;;15.88;8.80;;;;;;;3.22;71.62;97856.94;1818275;77;21110;-80
2021/10/09 01:00:02;;;;;;;11.55;7.42;;;;;;;3.19;71.87;97855.86;1760858;80;21035;-80
2021/10/09 01:04:54;;;;;;;12.98;7.95;;;;;;;3.09;72.28;97861.69;1826611;77;21095;-80
2021/10/09 01:07:20;;;;;;;13.40;8.18;;;;;;;3.02;72.18;97862.55;1807789;78;21007;-81
2021/10/09 01:09:46;;;;;;;14.68;8.35;;;;;;;3.00;72.24;97863.12;1818193;77;21711;-80
2021/10/09 01:12:14;;;;;;;13.30;7.87;;;;;;;2.98;72.40;97859.37;1813984;79;21115;-81
2021/10/09 01:14:41;;;;;;;11.48;7.75;;;;;;;2.98;72.50;97861.93;1813807;77;21062;-80
2021/10/09 01:17:11;;;;;;;13.83;8.05;;;;;;;3.00;72.70;97860.09;1813832;77;21075;-81
2021/10/09 01:19:38;;;;;;;14.35;8.08;;;;;;;2.98;72.78;97855.52;1813713;77;21020;-80
2021/10/09 01:22:03;;;;;;;14.98;7.67;;;;;;;2.93;72.74;97849.86;1813780;77;21024;-80
2021/10/09 01:24:29;;;;;;;12.10;7.37;;;;;;;2.87;73.05;97850.23;1813959;78;21477;-80
2021/10/09 01:26:55;;;;;;;16.62;7.92;;;;;;;2.84;73.34;97852.18;1813661;77;21037;-81
2021/10/09 01:29:21;;;;;;;10.85;8.33;;;;;;;2.80;73.23;97847.70;1843905;76;21075;-80
2021/10/09 01:31:46;;;;;;;10.13;6.85;;;;;;;2.78;73.20;97844.88;1817821;78;21402;-80
2021/10/09 01:34:12;;;;;;;14.83;8.15;;;;;;;2.77;73.22;97844.52;1817048;79;21151;-80
2021/10/09 01:39:07;;;;;;;14.28;8.98;;;;;;;2.76;73.09;97841.56;1853781;76;21474;-80
2021/10/09 01:41:40;;;;;;;14.18;8.30;;;;;;;2.71;73.15;97840.12;1850255;76;21031;-80
2021/10/09 01:44:06;;;;;;;12.93;6.85;;;;;;;2.68;73.13;97839.50;1835903;76;21063;-80
2021/10/09 01:46:32;;;;;;;20.48;8.45;;;;;;;2.63;73.62;97836.41;1836354;77;21439;-81
2021/10/09 01:48:57;;;;;;;12.78;7.80;;;;;;;2.58;73.59;97835.85;1843500;77;21090;-81
2021/10/09 01:51:25;;;;;;;14.55;7.70;;;;;;;2.57;73.98;97836.77;1854768;75;21402;-81
2021/10/09 01:53:51;;;;;;;11.40;6.60;;;;;;;2.58;73.97;97837.13;1846434;76;21062;-81
2021/10/09 01:56:16;;;;;;;8.83;6.00;;;;;;;2.58;73.61;97830.72;1847177;77;21107;-81
2021/10/09 01:58:42;;;;;;;13.08;6.97;;;;;;;2.55;73.72;97833.48;1849961;77;21111;-81
2021/10/09 02:01:08;;;;;;;14.43;7.37;;;;;;;2.52;73.82;97837.53;1851308;76;21106;-81
2021/10/09 02:03:33;;;;;;;9.38;6.42;;;;;;;2.49;73.78;97831.31;1859432;75;21134;-81
2021/10/09 02:05:59;;;;;;;12.33;7.15;;;;;;;2.43;73.94;97833.78;1831497;75;21080;-81
2021/10/09 02:08:26;;;;;;;15.90;7.87;;;;;;;2.39;74.15;97836.18;1842743;77;21047;-81
2021/10/09 02:10:57;;;;;;;11.95;7.30;;;;;;;2.36;73.93;97830.79;1798409;77;21526;-81
2021/10/09 02:13:26;;;;;;;14.00;7.05;;;;;;;2.37;74.23;97833.72;1849081;77;21015;-81
2021/10/09 02:15:54;;;;;;;15.90;7.72;;;;;;;2.39;74.26;97827.20;1850723;76;21027;-81
2021/10/09 02:26:03;;;;;;;9.30;7.40;;;;;;;2.33;74.65;97827.59;1806899;77;21061;-81
2021/10/09 02:28:29;;;;;;;12.70;6.87;;;;;;;2.28;74.96;97830.45;1807528;78;21114;-81
2021/10/09 02:30:55;;;;;;;10.03;7.37;;;;;;;2.27;74.77;97829.23;1838814;76;21034;-81
2021/10/09 02:33:22;;;;;;;11.28;7.22;;;;;;;2.27;74.76;97834.37;1875521;76;21046;-81
2021/10/09 02:35:47;;;;;;;11.12;7.10;;;;;;;2.23;74.81;97829.89;1845516;77;21015;-81
2021/10/09 02:38:14;;;;;;;10.60;7.08;;;;;;;2.23;74.85;97829.89;1846294;77;21012;-81
2021/10/09 02:40:43;;;;;;;13.50;7.53;;;;;;;2.22;74.90;97833.38;1846582;77;21457;-81
2021/10/09 02:43:09;;;;;;;9.50;6.95;;;;;;;2.20;74.94;97826.70;1848567;76;21023;-81
2021/10/09 02:45:35;;;;;;;9.58;7.05;;;;;;;2.18;75.04;97833.67;1869702;75;21089;-81
2021/10/09 02:50:26;;;;;;;12.88;7.78;;;;;;;2.14;75.23;97834.33;1828135;76;21568;-81
2021/10/09 02:52:52;;;;;;;14.55;7.40;;;;;;;2.15;75.22;97829.56;1847610;77;21457;-81
2021/10/09 02:55:19;;;;;;;12.15;7.40;;;;;;;2.16;75.36;97834.23;1792439;78;21055;-81
2021/10/09 02:57:47;;;;;;;11.40;7.10;;;;;;;2.14;75.31;97830.94;1791419;77;21394;-81
2021/10/09 03:00:14;;;;;;;15.90;7.85;;;;;;;2.11;75.32;97834.48;1798945;77;21009;-81
2021/10/09 03:02:39;;;;;;;10.93;6.75;;;;;;;2.08;75.35;97838.52;1811687;78;21106;-81
2021/10/09 03:05:06;;;;;;;11.60;7.17;;;;;;;2.05;75.52;97836.16;1796693;78;21064;-81
2021/10/09 03:07:33;;;;;;;9.40;6.67;;;;;;;2.05;75.30;97837.44;1814907;78;21158;-81
2021/10/09 03:09:59;;;;;;;10.95;6.97;;;;;;;2.05;75.23;97838.72;1834023;77;21433;-81
2021/10/09 03:12:24;;;;;;;11.35;8.50;;;;;;;2.04;75.16;97837.89;1812359;77;21125;-81
2021/10/09 03:14:51;;;;;;;11.55;7.62;;;;;;;2.02;75.28;97841.47;1799626;79;21035;-81
2021/10/09 03:17:17;;;;;;;14.87;8.93;;;;;;;2.02;75.53;97853.01;1810244;79;21056;-81
2021/10/09 03:19:43;;;;;;;11.55;7.83;;;;;;;1.98;75.48;97840.84;1810510;79;21096;-81
2021/10/09 03:22:08;;;;;;;15.68;8.35;;;;;;;1.96;75.52;97849.09;1804834;79;21433;-81
2021/10/09 03:24:34;;;;;;;11.68;6.75;;;;;;;1.96;75.49;97849.09;1771747;78;21092;-81
2021/10/09 03:27:00;;;;;;;12.15;7.05;;;;;;;1.95;75.48;97851.71;1779867;79;21059;-81
2021/10/09 03:29:26;;;;;;;14.00;7.60;;;;;;;1.96;75.51;97850.37;1791379;77;21422;-82
2021/10/09 03:31:51;;;;;;;9.30;6.97;;;;;;;1.96;75.51;97853.39;1806444;78;21100;-81
2021/10/09 03:34:17;;;;;;;9.75;6.78;;;;;;;1.93;75.67;97850.53;1850084;77;21069;-81
2021/10/09 03:36:45;;;;;;;11.05;6.58;;;;;;;1.86;75.72;97851.00;1848072;77;21016;-81
2021/10/09 03:39:14;;;;;;;12.40;6.37;;;;;;;1.80;75.81;97846.62;1845381;77;21043;-81
2021/10/09 03:41:42;;;;;;;11.30;7.03;;;;;;;1.79;75.75;97844.97;1849877;77;21086;-81
2021/10/09 03:44:06;;;;;;;9.60;7.42;;;;;;;1.80;75.79;97840.67;1846803;76;21038;-81
2021/10/09 03:46:39;;;;;;;10.88;7.47;;;;;;;1.78;75.66;97839.45;1846590;77;20988;-81
2021/10/09 03:54:09;;;;;;;9.33;6.50;;;;;;;1.73;76.09;97831.68;1860278;76;21067;-81
2021/10/09 03:56:35;;;;;;;12.47;6.80;;;;;;;1.72;75.96;97837.72;1848549;75;21095;-81
2021/10/09 03:59:04;;;;;;;10.15;6.30;;;;;;;1.69;75.77;97831.05;1844809;77;21123;-80
2021/10/09 04:01:28;;;;;;;9.88;6.50;;;;;;;1.71;75.97;97832.23;1848916;77;21031;-81
2021/10/09 04:03:54;;;;;;;11.20;6.47;;;;;;;1.70;76.12;97836.99;1849763;77;21342;-81
2021/10/09 04:06:20;;;;;;;11.45;7.05;;;;;;;1.68;76.08;97834.98;1850172;77;21083;-81
2021/10/09 04:08:46;;;;;;;14.13;7.97;;;;;;;1.62;76.17;97828.92;1846458;77;21126;-81
2021/10/09 04:11:12;;;;;;;12.03;8.78;;;;;;;1.58;76.42;97837.71;1864538;75;21142;-81
2021/10/09 04:13:37;;;;;;;10.13;7.97;;;;;;;1.59;76.51;97840.64;1812494;78;21580;-80
2021/10/09 04:16:04;;;;;;;13.58;8.70;;;;;;;1.59;76.53;97849.60;1765456;80;21091;-81
2021/10/09 04:18:30;;;;;;;18.52;9.70;;;;;;;1.57;76.55;97847.14;1783847;78;20984;-81
2021/10/09 04:20:55;;;;;;;14.15;9.40;;;;;;;1.56;76.53;97853.63;1819717;78;21118;-81
2021/10/09 04:23:21;;;;;;;12.98;8.75;;;;;;;1.52;76.87;97854.28;1784512;78;21155;-81
2021/10/09 04:25:47;;;;;;;14.95;8.63;;;;;;;1.49;77.11;97852.72;1779833;78;21176;-81
2021/10/09 04:28:12;;;;;;;14.83;8.73;;;;;;;1.52;77.03;97840.64;1812323;77;21016;-81
2021/10/09 04:30:38;;;;;;;12.63;9.08;;;;;;;1.57;77.11;97861.69;1817224;78;21167;-81
2021/10/09 04:33:04;;;;;;;16.93;9.18;;;;;;;1.56;77.01;97854.91;1806182;78;21108;-81
2021/10/09 04:35:30;;;;;;;22.02;9.93;;;;;;;1.55;77.00;97865.63;1787468;78;21565;-81
2021/10/09 04:37:57;;;;;;;16.10;10.15;;;;;;;1.52;77.02;97858.58;1787371;79;21057;-81
2021/10/09 04:40:22;;;;;;;19.90;10.55;;;;;;;1.48;77.12;97862.61;1787518;79;21032;-81
2021/10/09 04:42:48;;;;;;;18.10;10.35;;;;;;;1.51;77.05;97860.31;1787565;79;21084;-81
2021/10/09 04:45:14;;;;;;;15.58;11.43;;;;;;;1.54;77.08;97861.41;1826204;78;21042;-81
2021/10/09 04:47:40;;;;;;;15.18;11.68;;;;;;;1.53;76.98;97863.61;1810208;77;21035;-81
2021/10/09 04:50:06;;;;;;;19.35;12.30;;;;;;;1.51;77.15;97861.59;1807310;77;21158;-81
2021/10/09 04:52:32;;;;;;;21.75;13.05;;;;;;;1.50;77.57;97860.77;1787304;80;21123;-81
2021/10/09 04:54:58;;;;;;;21.80;13.58;;;;;;;1.48;77.47;97863.06;1818353;78;21425;-81
2021/10/09 04:57:23;;;;;;;15.60;11.90;;;;;;;1.48;77.34;97859.22;1801556;77;21049;-81
2021/10/09 04:59:50;;;;;;;21.60;13.18;;;;;;;1.50;77.42;97862.05;1796148;78;21001;-81
2021/10/09 05:02:16;;;;;;;20.08;13.95;;;;;;;1.47;77.46;97857.58;1802337;78;21069;-81
2021/10/09 05:04:42;;;;;;;18.17;12.98;;;;;;;1.45;77.64;97861.93;1768508;80;21012;-81
2021/10/09 05:07:08;;;;;;;17.50;13.50;;;;;;;1.41;77.68;97868.16;1809367;78;21484;-80
2021/10/09 05:09:33;;;;;;;17.12;12.90;;;;;;;1.40;77.73;97873.73;1820728;78;21052;-81
2021/10/09 05:11:59;;;;;;;19.42;13.80;;;;;;;1.43;77.77;97863.77;1788811;78;20983;-81
2021/10/09 05:14:25;;;;;;;17.87;12.00;;;;;;;1.42;77.77;97864.22;1777529;78;21516;-80
2021/10/09 05:16:50;;;;;;;21.05;12.82;;;;;;;1.44;77.82;97862.39;1785537;78;21049;-80
2021/10/09 05:19:16;;;;;;;18.40;12.95;;;;;;;1.37;77.57;97865.41;1802361;78;21029;-80
2021/10/09 05:21:42;;;;;;;22.13;14.95;;;;;;;1.28;78.30;97871.88;1805678;78;21335;-81
2021/10/09 05:24:08;;;;;;;20.30;14.38;;;;;;;1.19;78.42;97856.59;1814330;78;21054;-81
2021/10/09 05:26:37;;;;;;;25.37;15.13;;;;;;;1.14;78.85;97861.16;1811940;77;21091;-81
2021/10/09 05:29:02;;;;;;;27.93;16.75;;;;;;;1.04;78.78;97856.18;1812549;77;21382;-81
2021/10/09 05:31:32;;;;;;;24.00;15.25;;;;;;;1.09;78.72;97868.70;1813797;78;21055;-81
2021/10/09 05:33:58;;;;;;;24.67;16.37;;;;;;;1.13;78.86;97869.72;1813922;79;21399;-81
2021/10/09 05:36:24;;;;;;;20.45;12.37;;;;;;;1.09;78.76;97872.09;1825062;76;21046;-81
2021/10/09 05:38:50;;;;;;;27.73;18.95;;;;;;;1.07;78.27;97868.80;1835506;75;21056;-81
2021/10/09 05:41:16;;;;;;;25.12;16.23;;;;;;;1.15;78.89;97886.30;1817570;78;21032;-81
2021/10/09 05:43:44;;;;;;;30.48;18.42;;;;;;;1.15;78.95;97883.28;1813478;78;21410;-80
2021/10/09 05:46:09;;;;;;;22.17;14.83;;;;;;;1.15;78.98;97861.52;1820162;77;21160;-80
2021/10/09 05:48:37;;;;;;;25.23;17.30;;;;;;;1.20;79.47;97877.44;1826685;77;21399;-81
2021/10/09 05:58:49;;;;;;;24.37;16.45;;;;;;;1.32;79.44;97880.22;1809962;78;21012;-81
2021/10/09 06:49:31;;;;;;;27.98;15.88;;;;;;;2.33;78.70;97909.22;1818151;78;21086;-80
2021/10/09 06:59:38;;;;;;;22.00;15.55;;;;;;;2.80;78.71;97915.73;1816888;79;21511;-81
2021/10/09 07:02:04;;;;;;;17.40;13.18;;;;;;;2.92;77.61;97921.36;1832067;78;21064;-82
2021/10/09 07:04:30;;;;;;;16.10;10.23;;;;;;;3.08;77.43;97917.82;1835679;76;21377;-81
2021/10/09 07:06:56;;;;;;;15.48;10.70;;;;;;;3.17;75.00;97892.39;1859223;76;21055;-81
2021/10/09 07:09:22;;;;;;;15.95;9.78;;;;;;;3.46;75.61;97909.77;1845128;77;21047;-81
2021/10/09 07:11:48;;;;;;;16.35;9.45;;;;;;;3.63;75.50;97924.09;1849763;77;21386;-81
2021/10/09 07:16:39;;;;;;;18.07;13.47;;;;;;;3.79;74.44;97924.72;1863899;76;21004;-81
2021/10/09 07:19:05;;;;;;;10.98;8.30;;;;;;;3.96;74.74;97921.03;1849137;77;21151;-79
2021/10/09 07:21:31;;;;;;;20.70;13.43;;;;;;;4.06;74.62;97929.75;1832201;77;21060;-79
2021/10/09 07:23:57;;;;;;;20.25;14.00;;;;;;;4.16;74.67;97925.64;1847531;77;21368;-79
2021/10/09 07:26:22;;;;;;;18.02;12.15;;;;;;;4.26;74.78;97925.03;1845554;77;21035;-79
2021/10/09 07:28:49;;;;;;;13.80;9.55;;;;;;;4.31;73.67;97927.64;1849839;77;21027;-79
2021/10/09 07:31:16;;;;;;;13.80;7.17;;;;;;;4.39;72.42;97933.53;1840479;77;21371;-79
2021/10/09 07:33:42;;;;;;;8.70;5.50;;;;;;;4.52;70.17;97924.86;1842813;78;21095;-79
2021/10/09 07:36:08;;;;;;;8.03;5.35;;;;;;;4.69;70.32;97927.55;1834547;78;20995;-79
2021/10/09 07:38:33;;;;;;;9.40;6.10;;;;;;;4.91;68.66;97930.75;1848475;77;21421;-79
2021/10/09 07:40:59;;;;;;;10.55;6.55;;;;;;;5.10;68.88;97927.22;1844983;77;21103;-79
2021/10/09 07:43:26;;;;;;;8.03;5.28;;;;;;;5.30;69.51;97937.84;1845797;77;21011;-79
2021/10/09 07:45:51;;;;;;;13.98;7.30;;;;;;;5.46;66.92;97938.84;1848342;77;21363;-79
2021/10/09 07:48:17;;;;;;;9.20;6.20;;;;;;;5.61;66.10;97941.13;1824658;77;21025;-79
2021/10/09 07:50:43;;;;;;;11.90;8.33;;;;;;;5.76;63.42;97934.02;1838276;77;22721;-79
2021/10/09 07:53:10;;;;;;;9.73;7.05;;;;;;;5.89;66.18;97932.17;1842664;77;21113;-79
2021/10/09 07:55:35;;;;;;;14.43;10.82;;;;;;;6.00;64.70;97933.49;1845864;77;21489;-79
2021/10/09 07:58:01;;;;;;;53.78;25.45;;;;;;;6.06;66.11;97932.70;1845844;77;21154;-80
2021/10/09 08:00:27;;;;;;;17.87;9.08;;;;;;;6.06;65.28;97930.94;1841590;77;21019;-79
2021/10/09 08:02:53;;;;;;;10.20;6.30;;;;;;;6.11;63.30;97924.13;1850117;76;21003;-79
2021/10/09 08:05:18;;;;;;;12.82;6.12;;;;;;;6.19;63.33;97917.94;1849427;76;21015;-79
2021/10/09 08:07:44;;;;;;;9.48;6.00;;;;;;;6.26;62.52;97910.88;1848813;77;21027;-80
2021/10/09 08:10:10;;;;;;;10.50;6.87;;;;;;;6.33;62.46;97921.08;1846582;77;21085;-80
2021/10/09 08:12:36;;;;;;;8.70;5.08;;;;;;;6.41;61.46;97917.92;1849643;77;21366;-79
2021/10/09 08:15:03;;;;;;;8.73;5.53;;;;;;;6.50;60.65;97918.95;1849564;77;21007;-80
2021/10/09 08:17:29;;;;;;;6.60;5.45;;;;;;;6.54;61.64;97917.34;1849952;76;21063;-79
2021/10/09 08:19:55;;;;;;;9.15;6.53;;;;;;;6.58;61.73;97922.60;1849349;77;21095;-79
2021/10/09 08:22:23;;;;;;;9.23;5.83;;;;;;;6.63;60.24;97927.41;1847118;77;21564;-79
2021/10/09 08:27:39;;;;;;;7.95;5.00;;;;;;;6.75;58.19;97916.59;1849213;77;21039;-80
2021/10/09 08:40:29;;;;;;;8.80;5.53;;;;;;;6.99;59.57;97936.61;1839623;77;21016;-81
2021/10/09 08:42:54;;;;;;;10.40;5.70;;;;;;;7.03;58.81;97932.05;1849118;76;22096;-81
2021/10/09 08:45:20;;;;;;;9.93;6.28;;;;;;;7.07;58.08;97919.22;1849287;76;21031;-81
2021/10/09 08:47:47;;;;;;;8.60;6.22;;;;;;;7.12;58.77;97924.36;1849565;77;21085;-81
2021/10/09 08:50:13;;;;;;;9.95;6.37;;;;;;;7.15;57.01;97926.70;1844971;77;21028;-81
2021/10/09 08:55:19;;;;;;;8.30;6.28;;;;;;;7.23;58.06;97935.15;1844272;77;21074;-81
2021/10/09 08:57:46;;;;;;;7.75;5.60;;;;;;;7.27;58.27;97926.20;1847324;77;22017;-81
2021/10/09 09:00:13;;;;;;;11.73;6.83;;;;;;;7.35;59.01;97926.89;1831857;77;21011;-81
2021/10/09 09:40:10;;;;;;;13.40;9.25;;;;;;;8.15;61.46;97929.73;1803586;78;21079;-81
2021/10/09 09:42:49;;;;;;;11.40;8.25;;;;;;;8.18;60.67;97935.95;1792514;80;21034;-81
2021/10/09 09:45:25;;;;;;;13.43;8.20;;;;;;;8.22;60.15;97937.33;1809430;78;21119;-82
2021/10/09 09:50:19;;;;;;;13.65;8.30;;;;;;;8.30;60.03;97933.63;1810602;77;21047;-81
2021/10/09 09:52:46;;;;;;;14.58;8.65;;;;;;;8.34;59.10;97928.56;1808969;79;21024;-81
2021/10/09 09:55:18;;;;;;;10.88;8.20;;;;;;;8.37;58.51;97923.12;1807721;79;21031;-81
2021/10/09 09:57:43;;;;;;;9.53;6.58;;;;;;;8.42;58.98;97926.13;1801842;78;21010;-81
2021/10/09 10:00:12;;;;;;;11.80;7.90;;;;;;;8.47;58.20;97925.76;1803478;78;21072;-81
2021/10/09 10:02:54;;;;;;;11.22;7.22;;;;;;;8.52;58.04;97926.17;1834035;77;21082;-82
2021/10/09 10:05:24;;;;;;;9.98;7.33;;;;;;;8.58;59.11;97924.34;1792122;78;21182;-81
2021/10/09 10:07:51;;;;;;;7.87;5.55;;;;;;;8.57;58.36;97916.70;1858104;76;21027;-81
2021/10/09 10:10:18;;;;;;;10.55;7.20;;;;;;;8.67;56.41;97924.86;1824158;76;21441;-81
2021/10/09 10:12:45;;;;;;;9.18;6.95;;;;;;;8.69;57.86;97926.03;1837055;76;21063;-81
2021/10/09 10:15:11;;;;;;;9.73;7.20;;;;;;;8.73;57.32;97913.95;1816744;79;21151;-82
2021/10/09 10:17:46;;;;;;;11.83;7.55;;;;;;;8.80;58.68;97920.75;1816725;79;21110;-81
2021/10/09 10:20:18;;;;;;;11.40;6.83;;;;;;;8.85;58.20;97930.23;1841722;76;21059;-82
2021/10/09 10:22:50;;;;;;;12.25;7.20;;;;;;;8.90;57.73;97920.27;1817189;77;21099;-82
2021/10/09 10:25:26;;;;;;;14.45;8.30;;;;;;;8.92;57.71;97928.73;1813473;77;21387;-82
2021/10/09 10:30:42;;;;;;;10.40;6.70;;;;;;;8.96;57.27;97935.78;1782232;79;21080;-82
2021/10/09 10:33:18;;;;;;;9.75;6.55;;;;;;;9.01;57.26;97930.53;1798505;80;21137;-82
2021/10/09 10:35:47;;;;;;;12.90;8.13;;;;;;;9.06;56.90;97930.13;1850413;75;21044;-82
2021/10/09 10:38:25;;;;;;;13.60;7.58;;;;;;;9.10;55.39;97932.78;1825536;77;21068;-82
2021/10/09 10:40:58;;;;;;;13.22;7.62;;;;;;;9.12;57.68;97932.20;1798379;77;21055;-82
2021/10/09 10:43:44;;;;;;;11.80;8.05;;;;;;;9.15;56.09;97924.62;1806222;77;21084;-82
2021/10/09 10:48:56;;;;;;;10.10;5.87;;;;;;;9.24;56.51;97925.09;1819709;77;21019;-82
2021/10/09 10:51:42;;;;;;;12.13;8.08;;;;;;;9.28;55.82;97923.41;1818159;77;21430;-82
2021/10/09 10:59:34;;;;;;;13.53;7.55;;;;;;;9.40;57.01;97924.07;1843775;74;21036;-82
2021/10/09 11:04:46;;;;;;;13.98;8.33;;;;;;;9.55;56.36;97925.30;1818386;77;21071;-82
2021/10/09 11:07:13;;;;;;;11.85;7.28;;;;;;;9.61;56.15;97914.39;1818243;78;20997;-82
2021/10/09 11:09:39;;;;;;;11.53;7.28;;;;;;;9.62;54.49;97920.40;1814457;79;21086;-82
2021/10/09 11:14:41;;;;;;;9.78;7.70;;;;;;;9.56;53.42;97920.93;1843051;76;21074;-82
2021/10/09 11:17:07;;;;;;;14.65;7.78;;;;;;;9.62;54.63;97918.63;1852672;76;20990;-82
2021/10/09 11:19:47;;;;;;;9.68;7.25;;;;;;;9.67;54.58;97922.57;1841593;77;21450;-82
2021/10/09 11:22:15;;;;;;;9.63;6.35;;;;;;;9.77;55.02;97919.02;1804442;78;21545;-82
2021/10/09 11:24:48;;;;;;;10.08;6.72;;;;;;;9.81;54.59;97922.14;1795834;78;21034;-82
2021/10/09 11:27:16;;;;;;;12.43;7.22;;;;;;;9.83;55.30;97921.05;1830157;78;21129;-82
2021/10/09 11:29:43;;;;;;;9.95;7.30;;;;;;;9.86;54.35;97923.36;1819161;78;21137;-82
2021/10/09 11:32:09;;;;;;;11.60;7.30;;;;;;;9.91;53.19;97926.83;1849855;76;21062;-82
2021/10/09 11:34:52;;;;;;;12.07;7.35;;;;;;;9.91;53.05;97923.75;1824214;76;21098;-82
2021/10/09 11:37:19;;;;;;;9.23;7.33;;;;;;;9.94;53.84;97916.18;1797208;79;21047;-81
2021/10/09 11:39:52;;;;;;;10.75;7.15;;;;;;;9.92;52.39;97913.73;1820396;77;21078;-81
2021/10/09 11:42:22;;;;;;;10.68;6.33;;;;;;;9.93;53.94;97910.66;1831631;76;21143;-82
2021/10/09 11:45:25;;;;;;;11.95;7.25;;;;;;;9.97;52.70;97913.30;1805206;79;21032;-82
2021/10/09 11:56:07;;;;;;;11.08;7.42;;;;;;;10.04;53.48;97913.06;1838245;76;21469;-81
2021/10/09 11:58:45;;;;;;;13.48;8.08;;;;;;;10.11;52.95;97921.13;1822541;79;21066;-82
2021/10/09 12:03:54;;;;;;;14.98;7.20;;;;;;;10.11;52.72;97917.23;1825624;76;21452;-81
2021/10/09 12:06:19;;;;;;;15.75;7.28;;;;;;;10.17;53.40;97921.85;1811491;79;20993;-82
2021/10/09 12:08:54;;;;;;;11.38;7.08;;;;;;;10.17;51.69;97924.45;1802716;79;21075;-81
2021/10/09 12:11:26;;;;;;;10.48;6.65;;;;;;;10.17;52.25;97916.17;1787948;78;21532;-81
2021/10/09 12:14:00;;;;;;;9.05;6.62;;;;;;;10.19;51.96;97901.27;1835274;77;21336;-81
2021/10/09 12:19:11;;;;;;;8.30;6.50;;;;;;;10.18;52.53;97908.72;1846380;77;21050;-82
2021/10/09 12:21:55;;;;;;;10.05;6.35;;;;;;;10.25;52.51;97914.22;1845051;76;21031;-82
2021/10/09 12:24:23;;;;;;;13.22;6.72;;;;;;;10.31;52.17;97908.92;1843042;76;21440;-81
2021/10/09 12:27:05;;;;;;;10.15;7.20;;;;;;;10.32;53.69;97913.16;1846122;77;21084;-82
2021/10/09 12:29:34;;;;;;;10.40;6.97;;;;;;;10.30;52.26;97909.88;1840160;77;21047;-82
2021/10/09 12:32:18;;;;;;;12.78;7.87;;;;;;;10.28;52.49;97916.52;1846714;77;21086;-81
2021/10/09 12:34:44;;;;;;;10.88;7.42;;;;;;;10.30;52.72;97912.48;1844934;76;21107;-81
2021/10/09 12:37:28;;;;;;;15.10;7.92;;;;;;;10.32;52.02;97912.67;1848235;77;21439;-81
2021/10/09 12:40:11;;;;;;;;;;;;;;;10.34;52.79;97911.23;1852983;76;21004;-81
2021/10/09 12:42:37;;;;;;;10.43;7.70;;;;;;;10.42;53.77;97914.77;1845249;77;20104;-82
2021/10/09 12:45:04;;;;;;;12.40;8.25;;;;;;;10.41;53.13;97914.88;1846001;77;21094;-82
2021/10/09 12:47:29;;;;;;;13.80;9.10;;;;;;;10.41;52.84;97913.13;1846068;77;21031;-82
2021/10/09 12:49:55;;;;;;;10.45;7.70;;;;;;;10.43;53.31;97912.98;1846412;77;21339;-82
2021/10/09 12:52:21;;;;;;;13.68;9.80;;;;;;;10.41;53.51;97904.48;1846941;76;21098;-82
2021/10/09 12:54:47;;;;;;;13.88;9.23;;;;;;;10.43;54.40;97901.29;1848051;77;21023;-81
2021/10/09 12:57:12;;;;;;;17.77;9.18;;;;;;;10.45;52.64;97898.88;1846252;77;21433;-81
2021/10/09 12:59:38;;;;;;;12.15;8.53;;;;;;;10.44;52.75;97907.64;1841403;77;21062;-82
2021/10/09 13:02:04;;;;;;;14.58;10.78;;;;;;;10.43;52.08;97905.19;1849580;77;21078;-81
2021/10/09 13:04:30;;;;;;;15.50;9.98;;;;;;;10.43;53.31;97906.00;1849537;76;21354;-82
2021/10/09 13:06:55;;;;;;;12.63;8.43;;;;;;;10.45;53.07;97909.75;1849455;77;21000;-82
2021/10/09 13:09:21;;;;;;;15.35;8.60;;;;;;;10.49;53.60;97904.60;1847220;77;21023;-82
2021/10/09 13:14:12;;;;;;;11.03;7.83;;;;;;;10.47;52.85;97900.84;1823507;77;21027;-82
2021/10/09 13:16:38;;;;;;;13.28;9.15;;;;;;;10.51;54.08;97901.38;1800557;79;21233;-81
2021/10/09 13:19:03;;;;;;;11.83;8.58;;;;;;;10.51;55.05;97893.09;1835259;77;21406;-82
2021/10/09 13:21:29;;;;;;;12.80;9.28;;;;;;;10.51;53.63;97896.17;1819709;78;21059;-82
2021/10/09 13:23:55;;;;;;;12.43;8.00;;;;;;;10.50;54.60;97898.44;1846237;77;21079;-81
2021/10/09 13:26:21;;;;;;;11.45;8.58;;;;;;;10.51;53.75;97891.80;1849217;77;21374;-82
2021/10/09 13:28:47;;;;;;;10.58;8.33;;;;;;;10.51;53.56;97894.88;1846658;77;21020;-82
2021/10/09 13:31:13;;;;;;;9.73;7.92;;;;;;;10.51;53.40;97886.59;1844920;77;21176;-81
2021/10/09 13:33:38;;;;;;;13.78;8.08;;;;;;;10.55;53.48;97881.11;1847189;77;21394;-81
2021/10/09 13:36:05;;;;;;;12.75;8.93;;;;;;;10.52;52.67;97884.81;1846168;76;21012;-81
2021/10/09 13:38:33;;;;;;;13.75;8.28;;;;;;;10.51;53.47;97885.78;1849807;77;21410;-82
2021/10/09 13:40:58;;;;;;;13.03;8.53;;;;;;;10.51;52.74;97886.59;1846433;77;20972;-82
2021/10/09 13:43:26;;;;;;;13.75;8.98;;;;;;;10.52;53.22;97884.34;1848381;77;21066;-82
2021/10/09 13:45:51;;;;;;;11.18;7.28;;;;;;;10.55;53.39;97878.50;1849494;77;21027;-81
2021/10/09 13:48:17;;;;;;;15.65;8.90;;;;;;;10.53;51.65;97877.35;1849640;77;21534;-82
2021/10/09 13:50:47;;;;;;;13.90;9.18;;;;;;;10.46;53.11;97877.61;1849408;77;21007;-82
2021/10/09 13:53:12;;;;;;;12.53;7.78;;;;;;;10.43;53.30;97872.22;1850087;76;21383;-82
2021/10/09 13:55:40;;;;;;;12.25;9.10;;;;;;;10.44;53.44;97875.64;1849378;76;21101;-82
2021/10/09 13:58:06;;;;;;;12.90;8.20;;;;;;;10.43;53.17;97881.80;1845697;77;21089;-82
2021/10/09 14:00:31;;;;;;;13.15;7.95;;;;;;;10.43;53.24;97877.91;1845017;77;21071;-82
2021/10/09 14:02:58;;;;;;;13.18;9.15;;;;;;;10.43;53.42;97875.30;1840976;77;21004;-82
2021/10/09 14:05:25;;;;;;;13.43;8.48;;;;;;;10.40;52.92;97871.19;1812769;77;22192;-82
2021/10/09 14:07:51;;;;;;;11.95;8.43;;;;;;;10.32;52.38;97871.58;1849223;77;21122;-82
2021/10/09 14:10:17;;;;;;;10.65;7.92;;;;;;;10.28;52.82;97879.34;1841027;77;21482;-82
2021/10/09 14:12:43;;;;;;;11.57;8.48;;;;;;;10.20;52.29;97860.03;1847438;77;21117;-82
2021/10/09 14:15:10;;;;;;;9.80;6.45;;;;;;;10.25;53.02;97879.59;1845641;77;21038;-82
2021/10/09 14:17:38;;;;;;;13.55;8.08;;;;;;;10.26;51.84;97871.69;1846672;77;21094;-82
2021/10/09 14:22:34;;;;;;;12.58;7.53;;;;;;;10.14;53.00;97877.50;1849828;77;21031;-82
2021/10/09 14:25:00;;;;;;;10.53;6.92;;;;;;;10.11;52.80;97882.98;1842738;76;21047;-82
2021/10/09 14:27:29;;;;;;;10.58;7.92;;;;;;;10.07;52.33;97879.02;1848769;76;21027;-82
2021/10/09 14:29:58;;;;;;;11.08;8.63;;;;;;;10.03;52.93;97880.75;1796382;78;21115;-82
2021/10/09 14:32:25;;;;;;;11.63;7.67;;;;;;;9.98;53.04;97887.67;1809423;75;21070;-82